sensor_id;sensor_type;location;lat;lon;timestamp;P1;durP1;ratioP1;P2;durP2;ratioP2
12165;SDS011;6146;48.128;11.476;2022-08-18T00:00:25;7.43;;;6.70;;
12165;SDS011;6146;48.128;11.476;2022-08-18T00:02:51;7.57;;;6.80;;
12165;SDS011;6146;48.128;11.476;2022-08-18T00:05:18;7.23;;;6.63;;
12165;SDS011;6146;48.128;11.476;2022-08-18T00:07:45;7.10;;;6.40;;
12165;SDS011;6146;48.128;11.476;2022-08-18T00:10:10;7.43;;;6.77;;
12165;SDS011;6146;48.128;11.476;2022-08-18T00:12:41;7.20;;;6.23;;
12165;SDS011;6146;48.128;11.476;2022-08-18T00:15:08;7.07;;;6.37;;
12165;SDS011;6146;48.128;11.476;2022-08-18T00:17:36;6.67;;;6.13;;
12165;SDS011;6146;48.128;11.476;2022-08-18T00:20:06;6.70;;;6.10;;
12165;SDS011;6146;48.128;11.476;2022-08-18T00:22:35;9.70;;;6.60;;
12165;SDS011;6146;48.128;11.476;2022-08-18T00:25:01;6.97;;;6.33;;
12165;SDS011;6146;48.128;11.476;2022-08-18T00:27:28;6.87;;;6.27;;
12165;SDS011;6146;48.128;11.476;2022-08-18T00:29:56;8.30;;;6.90;;
12165;SDS011;6146;48.128;11.476;2022-08-18T00:32:25;6.73;;;6.13;;
12165;SDS011;6146;48.128;11.476;2022-08-18T00:34:57;6.87;;;6.03;;
12165;SDS011;6146;48.128;11.476;2022-08-18T00:37:45;6.87;;;6.17;;
12165;SDS011;6146;48.128;11.476;2022-08-18T00:40:12;6.43;;;5.83;;
12165;SDS011;6146;48.128;11.476;2022-08-18T00:42:43;7.17;;;6.50;;
12165;SDS011;6146;48.128;11.476;2022-08-18T00:45:23;7.00;;;6.30;;
12165;SDS011;6146;48.128;11.476;2022-08-18T00:47:51;6.83;;;5.40;;
12165;SDS011;6146;48.128;11.476;2022-08-18T00:50:23;7.13;;;6.13;;
12165;SDS011;6146;48.128;11.476;2022-08-18T00:52:57;6.53;;;5.87;;
12165;SDS011;6146;48.128;11.476;2022-08-18T00:55:26;7.23;;;6.37;;
12165;SDS011;6146;48.128;11.476;2022-08-18T00:57:54;6.30;;;5.70;;
12165;SDS011;6146;48.128;11.476;2022-08-18T01:00:28;6.40;;;5.87;;
12165;SDS011;6146;48.128;11.476;2022-08-18T01:02:54;7.87;;;5.60;;
12165;SDS011;6146;48.128;11.476;2022-08-18T01:05:25;7.03;;;6.43;;
12165;SDS011;6146;48.128;11.476;2022-08-18T01:07:54;7.47;;;6.83;;
12165;SDS011;6146;48.128;11.476;2022-08-18T01:10:21;6.17;;;5.67;;
12165;SDS011;6146;48.128;11.476;2022-08-18T01:12:52;7.00;;;6.30;;
12165;SDS011;6146;48.128;11.476;2022-08-18T01:15:19;7.37;;;6.67;;
12165;SDS011;6146;48.128;11.476;2022-08-18T01:17:46;6.90;;;6.30;;
12165;SDS011;6146;48.128;11.476;2022-08-18T01:20:40;6.90;;;6.27;;
12165;SDS011;6146;48.128;11.476;2022-08-18T01:23:44;6.53;;;5.93;;
12165;SDS011;6146;48.128;11.476;2022-08-18T01:26:12;7.47;;;6.80;;
12165;SDS011;6146;48.128;11.476;2022-08-18T01:28:39;7.17;;;6.37;;
12165;SDS011;6146;48.128;11.476;2022-08-18T01:31:07;7.13;;;6.50;;
12165;SDS011;6146;48.128;11.476;2022-08-18T01:33:36;7.00;;;6.30;;
12165;SDS011;6146;48.128;11.476;2022-08-18T01:38:31;7.20;;;6.60;;
12165;SDS011;6146;48.128;11.476;2022-08-18T01:40:57;7.80;;;6.43;;
12165;SDS011;6146;48.128;11.476;2022-08-18T01:43:24;7.30;;;6.70;;
12165;SDS011;6146;48.128;11.476;2022-08-18T01:45:50;8.40;;;6.77;;
12165;SDS011;6146;48.128;11.476;2022-08-18T01:48:16;6.87;;;6.17;;
12165;SDS011;6146;48.128;11.476;2022-08-18T01:50:41;7.37;;;6.30;;
12165;SDS011;6146;48.128;11.476;2022-08-18T01:53:09;7.67;;;6.73;;
12165;SDS011;6146;48.128;11.476;2022-08-18T01:55:36;6.53;;;5.93;;
12165;SDS011;6146;48.128;11.476;2022-08-18T01:58:05;6.63;;;6.03;;
12165;SDS011;6146;48.128;11.476;2022-08-18T02:00:32;6.53;;;5.93;;
12165;SDS011;6146;48.128;11.476;2022-08-18T02:02:59;6.47;;;5.90;;
12165;SDS011;6146;48.128;11.476;2022-08-18T02:05:36;6.80;;;6.20;;
12165;SDS011;6146;48.128;11.476;2022-08-18T02:08:05;6.43;;;5.63;;
12165;SDS011;6146;48.128;11.476;2022-08-18T02:10:31;6.43;;;5.83;;
12165;SDS011;6146;48.128;11.476;2022-08-18T02:12:56;6.70;;;6.10;;
12165;SDS011;6146;48.128;11.476;2022-08-18T02:15:22;7.20;;;6.03;;
12165;SDS011;6146;48.128;11.476;2022-08-18T02:17:48;6.77;;;6.07;;
12165;SDS011;6146;48.128;11.476;2022-08-18T02:20:14;6.00;;;5.50;;
12165;SDS011;6146;48.128;11.476;2022-08-18T02:22:41;7.37;;;6.00;;
12165;SDS011;6146;48.128;11.476;2022-08-18T02:25:08;6.07;;;5.57;;
12165;SDS011;6146;48.128;11.476;2022-08-18T02:27:34;6.40;;;5.90;;
12165;SDS011;6146;48.128;11.476;2022-08-18T02:30:00;6.33;;;5.83;;
12165;SDS011;6146;48.128;11.476;2022-08-18T02:32:27;6.20;;;5.70;;
12165;SDS011;6146;48.128;11.476;2022-08-18T02:34:52;6.00;;;5.40;;
12165;SDS011;6146;48.128;11.476;2022-08-18T02:37:18;6.17;;;5.57;;
12165;SDS011;6146;48.128;11.476;2022-08-18T02:39:45;6.70;;;6.10;;
12165;SDS011;6146;48.128;11.476;2022-08-18T02:42:10;6.10;;;5.50;;
12165;SDS011;6146;48.128;11.476;2022-08-18T02:44:38;6.90;;;5.77;;
12165;SDS011;6146;48.128;11.476;2022-08-18T02:47:04;6.43;;;5.83;;
12165;SDS011;6146;48.128;11.476;2022-08-18T02:49:30;6.27;;;5.67;;
12165;SDS011;6146;48.128;11.476;2022-08-18T02:51:56;6.40;;;5.83;;
12165;SDS011;6146;48.128;11.476;2022-08-18T02:54:22;6.63;;;5.50;;
12165;SDS011;6146;48.128;11.476;2022-08-18T02:56:49;5.87;;;5.37;;
12165;SDS011;6146;48.128;11.476;2022-08-18T02:59:17;5.90;;;5.40;;
12165;SDS011;6146;48.128;11.476;2022-08-18T03:01:46;6.60;;;6.00;;
12165;SDS011;6146;48.128;11.476;2022-08-18T03:04:14;6.07;;;5.47;;
12165;SDS011;6146;48.128;11.476;2022-08-18T03:06:41;6.90;;;6.00;;
12165;SDS011;6146;48.128;11.476;2022-08-18T03:09:09;6.17;;;5.63;;
12165;SDS011;6146;48.128;11.476;2022-08-18T03:11:36;6.07;;;5.47;;
12165;SDS011;6146;48.128;11.476;2022-08-18T03:14:02;6.10;;;5.50;;
12165;SDS011;6146;48.128;11.476;2022-08-18T03:16:29;6.07;;;5.57;;
12165;SDS011;6146;48.128;11.476;2022-08-18T03:18:57;6.20;;;5.60;;
12165;SDS011;6146;48.128;11.476;2022-08-18T03:21:25;6.00;;;5.50;;
12165;SDS011;6146;48.128;11.476;2022-08-18T03:23:52;5.97;;;5.30;;
12165;SDS011;6146;48.128;11.476;2022-08-18T03:26:19;6.50;;;5.80;;
12165;SDS011;6146;48.128;11.476;2022-08-18T03:28:47;6.77;;;6.17;;
12165;SDS011;6146;48.128;11.476;2022-08-18T03:31:15;6.43;;;5.83;;
12165;SDS011;6146;48.128;11.476;2022-08-18T03:33:42;6.27;;;5.67;;
12165;SDS011;6146;48.128;11.476;2022-08-18T03:36:10;6.27;;;5.67;;
12165;SDS011;6146;48.128;11.476;2022-08-18T03:38:38;5.93;;;5.43;;
12165;SDS011;6146;48.128;11.476;2022-08-18T03:41:05;6.13;;;5.63;;
12165;SDS011;6146;48.128;11.476;2022-08-18T03:43:32;6.93;;;6.17;;
12165;SDS011;6146;48.128;11.476;2022-08-18T03:46:02;6.43;;;5.93;;
12165;SDS011;6146;48.128;11.476;2022-08-18T03:48:29;5.83;;;5.33;;
12165;SDS011;6146;48.128;11.476;2022-08-18T03:51:04;6.40;;;5.80;;
12165;SDS011;6146;48.128;11.476;2022-08-18T03:53:32;6.43;;;5.83;;
12165;SDS011;6146;48.128;11.476;2022-08-18T03:55:59;6.30;;;5.70;;
12165;SDS011;6146;48.128;11.476;2022-08-18T03:58:25;6.10;;;5.50;;
12165;SDS011;6146;48.128;11.476;2022-08-18T04:00:51;6.30;;;5.77;;
12165;SDS011;6146;48.128;11.476;2022-08-18T04:03:17;6.53;;;5.63;;
12165;SDS011;6146;48.128;11.476;2022-08-18T04:05:43;6.07;;;5.50;;
12165;SDS011;6146;48.128;11.476;2022-08-18T04:08:09;6.80;;;6.20;;
12165;SDS011;6146;48.128;11.476;2022-08-18T04:10:35;6.30;;;5.70;;
12165;SDS011;6146;48.128;11.476;2022-08-18T04:13:00;6.40;;;5.70;;
12165;SDS011;6146;48.128;11.476;2022-08-18T04:15:29;6.80;;;6.20;;
12165;SDS011;6146;48.128;11.476;2022-08-18T04:17:59;6.17;;;5.60;;
12165;SDS011;6146;48.128;11.476;2022-08-18T04:20:28;6.20;;;5.60;;
12165;SDS011;6146;48.128;11.476;2022-08-18T04:22:54;6.30;;;5.70;;
12165;SDS011;6146;48.128;11.476;2022-08-18T04:25:20;6.00;;;5.50;;
12165;SDS011;6146;48.128;11.476;2022-08-18T04:27:45;6.20;;;5.60;;
12165;SDS011;6146;48.128;11.476;2022-08-18T04:30:11;5.70;;;5.20;;
12165;SDS011;6146;48.128;11.476;2022-08-18T04:32:37;6.30;;;5.70;;
12165;SDS011;6146;48.128;11.476;2022-08-18T04:35:03;6.13;;;5.63;;
12165;SDS011;6146;48.128;11.476;2022-08-18T04:37:30;6.10;;;5.60;;
12165;SDS011;6146;48.128;11.476;2022-08-18T04:39:56;6.27;;;5.67;;
12165;SDS011;6146;48.128;11.476;2022-08-18T04:42:23;6.47;;;5.87;;
12165;SDS011;6146;48.128;11.476;2022-08-18T04:44:49;5.90;;;5.40;;
12165;SDS011;6146;48.128;11.476;2022-08-18T04:47:15;6.80;;;6.07;;
12165;SDS011;6146;48.128;11.476;2022-08-18T04:49:41;14.60;;;6.07;;
12165;SDS011;6146;48.128;11.476;2022-08-18T04:52:08;12.23;;;5.87;;
12165;SDS011;6146;48.128;11.476;2022-08-18T04:54:53;8.70;;;5.93;;
12165;SDS011;6146;48.128;11.476;2022-08-18T04:57:19;7.37;;;5.90;;
12165;SDS011;6146;48.128;11.476;2022-08-18T04:59:46;6.30;;;5.70;;
12165;SDS011;6146;48.128;11.476;2022-08-18T05:02:13;6.47;;;5.70;;
12165;SDS011;6146;48.128;11.476;2022-08-18T05:04:40;7.13;;;5.67;;
12165;SDS011;6146;48.128;11.476;2022-08-18T05:07:07;6.20;;;5.60;;
12165;SDS011;6146;48.128;11.476;2022-08-18T05:09:35;6.63;;;6.03;;
12165;SDS011;6146;48.128;11.476;2022-08-18T05:12:02;6.20;;;5.67;;
12165;SDS011;6146;48.128;11.476;2022-08-18T05:14:29;5.63;;;5.13;;
12165;SDS011;6146;48.128;11.476;2022-08-18T05:16:58;6.00;;;5.50;;
12165;SDS011;6146;48.128;11.476;2022-08-18T05:19:24;5.60;;;5.10;;
12165;SDS011;6146;48.128;11.476;2022-08-18T05:21:51;5.00;;;4.60;;
12165;SDS011;6146;48.128;11.476;2022-08-18T05:24:18;5.17;;;4.67;;
12165;SDS011;6146;48.128;11.476;2022-08-18T05:26:45;5.20;;;4.80;;
12165;SDS011;6146;48.128;11.476;2022-08-18T05:29:11;4.73;;;4.33;;
12165;SDS011;6146;48.128;11.476;2022-08-18T05:31:37;5.57;;;5.07;;
12165;SDS011;6146;48.128;11.476;2022-08-18T05:34:02;5.03;;;4.53;;
12165;SDS011;6146;48.128;11.476;2022-08-18T05:41:49;5.03;;;4.33;;
12165;SDS011;6146;48.128;11.476;2022-08-18T05:44:26;4.93;;;4.43;;
12165;SDS011;6146;48.128;11.476;2022-08-18T05:47:16;5.30;;;4.70;;
12165;SDS011;6146;48.128;11.476;2022-08-18T05:49:51;4.60;;;4.20;;
12165;SDS011;6146;48.128;11.476;2022-08-18T05:52:27;5.20;;;4.70;;
12165;SDS011;6146;48.128;11.476;2022-08-18T05:55:09;4.40;;;4.00;;
12165;SDS011;6146;48.128;11.476;2022-08-18T05:58:03;5.37;;;3.90;;
12165;SDS011;6146;48.128;11.476;2022-08-18T06:00:34;4.60;;;4.20;;
12165;SDS011;6146;48.128;11.476;2022-08-18T06:03:04;4.30;;;4.00;;
12165;SDS011;6146;48.128;11.476;2022-08-18T06:06:00;4.63;;;4.23;;
12165;SDS011;6146;48.128;11.476;2022-08-18T06:08:42;4.33;;;3.93;;
12165;SDS011;6146;48.128;11.476;2022-08-18T06:11:11;4.67;;;4.10;;
12165;SDS011;6146;48.128;11.476;2022-08-18T06:13:38;4.90;;;4.43;;
12165;SDS011;6146;48.128;11.476;2022-08-18T06:24:28;5.03;;;4.53;;
12165;SDS011;6146;48.128;11.476;2022-08-18T06:27:35;5.13;;;4.73;;
12165;SDS011;6146;48.128;11.476;2022-08-18T06:30:24;4.60;;;4.20;;
12165;SDS011;6146;48.128;11.476;2022-08-18T06:33:09;5.47;;;4.97;;
12165;SDS011;6146;48.128;11.476;2022-08-18T06:43:50;5.50;;;5.00;;
12165;SDS011;6146;48.128;11.476;2022-08-18T06:46:26;5.57;;;5.07;;
12165;SDS011;6146;48.128;11.476;2022-08-18T06:49:01;5.40;;;4.90;;
12165;SDS011;6146;48.128;11.476;2022-08-18T06:51:29;6.90;;;5.33;;
12165;SDS011;6146;48.128;11.476;2022-08-18T06:54:06;5.47;;;5.07;;
12165;SDS011;6146;48.128;11.476;2022-08-18T06:56:51;5.17;;;4.67;;
12165;SDS011;6146;48.128;11.476;2022-08-18T06:59:23;5.43;;;5.00;;
12165;SDS011;6146;48.128;11.476;2022-08-18T07:01:55;6.03;;;5.37;;
12165;SDS011;6146;48.128;11.476;2022-08-18T07:04:57;6.13;;;5.33;;
12165;SDS011;6146;48.128;11.476;2022-08-18T07:07:38;5.37;;;4.97;;
12165;SDS011;6146;48.128;11.476;2022-08-18T07:10:07;5.97;;;5.37;;
12165;SDS011;6146;48.128;11.476;2022-08-18T07:13:14;5.87;;;5.37;;
12165;SDS011;6146;48.128;11.476;2022-08-18T07:15:42;6.27;;;5.60;;
12165;SDS011;6146;48.128;11.476;2022-08-18T07:18:10;5.40;;;4.90;;
12165;SDS011;6146;48.128;11.476;2022-08-18T07:23:46;5.93;;;5.30;;
12165;SDS011;6146;48.128;11.476;2022-08-18T07:26:09;5.57;;;5.07;;
12165;SDS011;6146;48.128;11.476;2022-08-18T07:28:39;5.43;;;4.93;;
12165;SDS011;6146;48.128;11.476;2022-08-18T07:33:37;5.13;;;4.73;;
12165;SDS011;6146;48.128;11.476;2022-08-18T07:36:06;5.20;;;4.70;;
12165;SDS011;6146;48.128;11.476;2022-08-18T07:38:38;6.53;;;4.40;;
12165;SDS011;6146;48.128;11.476;2022-08-18T07:41:19;4.83;;;4.43;;
12165;SDS011;6146;48.128;11.476;2022-08-18T07:43:58;4.73;;;4.23;;
12165;SDS011;6146;48.128;11.476;2022-08-18T07:49:32;4.50;;;4.10;;
12165;SDS011;6146;48.128;11.476;2022-08-18T07:52:11;5.13;;;4.57;;
12165;SDS011;6146;48.128;11.476;2022-08-18T07:54:57;4.35;;;3.95;;
12165;SDS011;6146;48.128;11.476;2022-08-18T08:00:38;4.60;;;4.13;;
12165;SDS011;6146;48.128;11.476;2022-08-18T08:15:15;4.22;;;3.83;;
12165;SDS011;6146;48.128;11.476;2022-08-18T08:17:58;5.13;;;4.63;;
12165;SDS011;6146;48.128;11.476;2022-08-18T08:20:56;4.40;;;4.05;;
12165;SDS011;6146;48.128;11.476;2022-08-18T08:34:32;5.00;;;4.50;;
12165;SDS011;6146;48.128;11.476;2022-08-18T08:37:03;5.10;;;4.57;;
12165;SDS011;6146;48.128;11.476;2022-08-18T08:42:10;3.88;;;3.58;;
12165;SDS011;6146;48.128;11.476;2022-08-18T08:44:54;4.80;;;4.10;;
12165;SDS011;6146;48.128;11.476;2022-08-18T08:48:09;5.15;;;4.70;;
12165;SDS011;6146;48.128;11.476;2022-08-18T08:50:26;7.30;;;4.88;;
12165;SDS011;6146;48.128;11.476;2022-08-18T08:55:59;4.95;;;4.53;;
12165;SDS011;6146;48.128;11.476;2022-08-18T08:58:37;7.70;;;4.90;;
12165;SDS011;6146;48.128;11.476;2022-08-18T09:01:18;4.60;;;4.20;;
12165;SDS011;6146;48.128;11.476;2022-08-18T09:09:21;4.40;;;4.00;;
12165;SDS011;6146;48.128;11.476;2022-08-18T09:11:55;3.72;;;3.40;;
12165;SDS011;6146;48.128;11.476;2022-08-18T09:23:05;3.92;;;3.50;;
12165;SDS011;6146;48.128;11.476;2022-08-18T09:28:07;3.60;;;3.30;;
12165;SDS011;6146;48.128;11.476;2022-08-18T09:36:31;3.78;;;3.40;;
12165;SDS011;6146;48.128;11.476;2022-08-18T09:39:26;3.42;;;3.15;;
12165;SDS011;6146;48.128;11.476;2022-08-18T09:42:30;3.40;;;3.10;;
12165;SDS011;6146;48.128;11.476;2022-08-18T09:47:59;3.65;;;3.25;;
12165;SDS011;6146;48.128;11.476;2022-08-18T09:52:53;4.50;;;3.53;;
12165;SDS011;6146;48.128;11.476;2022-08-18T09:58:11;4.00;;;3.67;;
12165;SDS011;6146;48.128;11.476;2022-08-18T10:00:39;4.00;;;3.50;;
12165;SDS011;6146;48.128;11.476;2022-08-18T10:03:12;3.25;;;2.95;;
12165;SDS011;6146;48.128;11.476;2022-08-18T10:05:54;3.92;;;3.63;;
12165;SDS011;6146;48.128;11.476;2022-08-18T10:08:26;4.50;;;3.35;;
12165;SDS011;6146;48.128;11.476;2022-08-18T10:11:05;3.45;;;3.25;;
12165;SDS011;6146;48.128;11.476;2022-08-18T10:22:03;3.70;;;3.40;;
12165;SDS011;6146;48.128;11.476;2022-08-18T10:30:43;3.38;;;3.13;;
12165;SDS011;6146;48.128;11.476;2022-08-18T10:33:05;4.40;;;4.03;;
12165;SDS011;6146;48.128;11.476;2022-08-18T10:38:14;4.18;;;3.83;;
12165;SDS011;6146;48.128;11.476;2022-08-18T10:40:57;5.28;;;4.10;;
12165;SDS011;6146;48.128;11.476;2022-08-18T10:43:31;4.57;;;4.18;;
12165;SDS011;6146;48.128;11.476;2022-08-18T10:46:16;4.70;;;4.38;;
12165;SDS011;6146;48.128;11.476;2022-08-18T10:48:58;5.10;;;4.07;;
12165;SDS011;6146;48.128;11.476;2022-08-18T10:51:30;6.05;;;5.53;;
12165;SDS011;6146;48.128;11.476;2022-08-18T10:54:09;5.20;;;4.70;;
12165;SDS011;6146;48.128;11.476;2022-08-18T10:56:51;4.90;;;4.47;;
12165;SDS011;6146;48.128;11.476;2022-08-18T11:04:30;3.92;;;3.63;;
12165;SDS011;6146;48.128;11.476;2022-08-18T11:07:09;4.28;;;3.88;;
12165;SDS011;6146;48.128;11.476;2022-08-18T11:09:39;4.07;;;3.78;;
12165;SDS011;6146;48.128;11.476;2022-08-18T11:12:07;3.95;;;3.65;;
12165;SDS011;6146;48.128;11.476;2022-08-18T11:19:40;3.85;;;3.50;;
12165;SDS011;6146;48.128;11.476;2022-08-18T11:22:21;4.78;;;4.38;;
12165;SDS011;6146;48.128;11.476;2022-08-18T11:24:47;4.20;;;3.80;;
12165;SDS011;6146;48.128;11.476;2022-08-18T11:27:18;4.20;;;3.90;;
12165;SDS011;6146;48.128;11.476;2022-08-18T11:29:46;4.93;;;4.38;;
12165;SDS011;6146;48.128;11.476;2022-08-18T11:32:21;4.47;;;4.00;;
12165;SDS011;6146;48.128;11.476;2022-08-18T11:35:12;5.20;;;4.38;;
12165;SDS011;6146;48.128;11.476;2022-08-18T11:40:52;4.30;;;3.97;;
12165;SDS011;6146;48.128;11.476;2022-08-18T11:50:33;5.10;;;3.65;;
12165;SDS011;6146;48.128;11.476;2022-08-18T11:53:15;3.90;;;3.60;;
12165;SDS011;6146;48.128;11.476;2022-08-18T11:56:00;4.00;;;3.70;;
12165;SDS011;6146;48.128;11.476;2022-08-18T12:01:26;4.45;;;3.90;;
12165;SDS011;6146;48.128;11.476;2022-08-18T12:12:02;5.32;;;3.95;;
12165;SDS011;6146;48.128;11.476;2022-08-18T12:14:30;4.47;;;4.15;;
12165;SDS011;6146;48.128;11.476;2022-08-18T12:16:57;4.43;;;4.00;;
12165;SDS011;6146;48.128;11.476;2022-08-18T12:19:24;4.00;;;3.70;;
12165;SDS011;6146;48.128;11.476;2022-08-18T12:21:56;4.45;;;4.05;;
12165;SDS011;6146;48.128;11.476;2022-08-18T12:24:25;5.00;;;4.03;;
12165;SDS011;6146;48.128;11.476;2022-08-18T12:26:55;5.18;;;4.68;;
12165;SDS011;6146;48.128;11.476;2022-08-18T12:29:23;4.55;;;4.18;;
12165;SDS011;6146;48.128;11.476;2022-08-18T12:31:51;5.40;;;4.88;;
12165;SDS011;6146;48.128;11.476;2022-08-18T12:34:18;4.80;;;4.40;;
12165;SDS011;6146;48.128;11.476;2022-08-18T12:36:49;4.95;;;4.35;;
12165;SDS011;6146;48.128;11.476;2022-08-18T12:39:16;4.90;;;4.50;;
12165;SDS011;6146;48.128;11.476;2022-08-18T12:41:42;5.78;;;5.28;;
12165;SDS011;6146;48.128;11.476;2022-08-18T12:44:07;6.07;;;5.57;;
12165;SDS011;6146;48.128;11.476;2022-08-18T12:46:33;7.88;;;6.20;;
12165;SDS011;6146;48.128;11.476;2022-08-18T12:49:00;5.60;;;5.10;;
12165;SDS011;6146;48.128;11.476;2022-08-18T12:51:30;5.45;;;4.95;;
12165;SDS011;6146;48.128;11.476;2022-08-18T12:53:55;5.15;;;4.75;;
12165;SDS011;6146;48.128;11.476;2022-08-18T12:56:22;5.18;;;4.80;;
12165;SDS011;6146;48.128;11.476;2022-08-18T12:58:50;4.90;;;4.50;;
12165;SDS011;6146;48.128;11.476;2022-08-18T13:01:17;5.85;;;4.90;;
12165;SDS011;6146;48.128;11.476;2022-08-18T13:03:44;5.90;;;5.43;;
12165;SDS011;6146;48.128;11.476;2022-08-18T13:06:13;6.97;;;6.18;;
12165;SDS011;6146;48.128;11.476;2022-08-18T13:08:39;6.03;;;5.43;;
12165;SDS011;6146;48.128;11.476;2022-08-18T13:11:05;6.47;;;5.88;;
12165;SDS011;6146;48.128;11.476;2022-08-18T13:13:35;6.03;;;5.43;;
12165;SDS011;6146;48.128;11.476;2022-08-18T13:16:01;6.10;;;5.53;;
12165;SDS011;6146;48.128;11.476;2022-08-18T13:18:27;5.65;;;5.20;;
12165;SDS011;6146;48.128;11.476;2022-08-18T13:20:53;5.60;;;5.13;;
12165;SDS011;6146;48.128;11.476;2022-08-18T13:23:18;6.00;;;5.40;;
12165;SDS011;6146;48.128;11.476;2022-08-18T13:25:44;7.50;;;6.05;;
12165;SDS011;6146;48.128;11.476;2022-08-18T13:28:10;5.25;;;4.85;;
12165;SDS011;6146;48.128;11.476;2022-08-18T13:30:35;6.15;;;5.60;;
12165;SDS011;6146;48.128;11.476;2022-08-18T13:33:01;7.57;;;6.30;;
12165;SDS011;6146;48.128;11.476;2022-08-18T13:35:27;6.43;;;5.70;;
12165;SDS011;6146;48.128;11.476;2022-08-18T13:37:53;5.63;;;5.23;;
12165;SDS011;6146;48.128;11.476;2022-08-18T13:40:19;6.23;;;5.73;;
12165;SDS011;6146;48.128;11.476;2022-08-18T13:42:46;5.93;;;5.43;;
12165;SDS011;6146;48.128;11.476;2022-08-18T13:45:14;6.87;;;6.17;;
12165;SDS011;6146;48.128;11.476;2022-08-18T13:47:42;6.33;;;5.73;;
12165;SDS011;6146;48.128;11.476;2022-08-18T13:50:08;7.00;;;6.00;;
12165;SDS011;6146;48.128;11.476;2022-08-18T13:52:36;5.80;;;5.30;;
12165;SDS011;6146;48.128;11.476;2022-08-18T13:55:04;5.60;;;5.10;;
12165;SDS011;6146;48.128;11.476;2022-08-18T13:57:31;6.93;;;5.73;;
12165;SDS011;6146;48.128;11.476;2022-08-18T13:59:57;5.50;;;5.00;;
12165;SDS011;6146;48.128;11.476;2022-08-18T14:02:22;6.20;;;5.70;;
12165;SDS011;6146;48.128;11.476;2022-08-18T14:04:48;6.67;;;5.40;;
12165;SDS011;6146;48.128;11.476;2022-08-18T14:07:13;7.13;;;5.57;;
12165;SDS011;6146;48.128;11.476;2022-08-18T14:09:41;6.33;;;5.73;;
12165;SDS011;6146;48.128;11.476;2022-08-18T14:12:13;6.17;;;5.53;;
12165;SDS011;6146;48.128;11.476;2022-08-18T14:14:42;6.33;;;5.83;;
12165;SDS011;6146;48.128;11.476;2022-08-18T14:17:08;6.23;;;5.63;;
12165;SDS011;6146;48.128;11.476;2022-08-18T14:19:33;6.03;;;5.50;;
12165;SDS011;6146;48.128;11.476;2022-08-18T14:22:17;8.13;;;6.23;;
12165;SDS011;6146;48.128;11.476;2022-08-18T14:25:01;6.70;;;6.00;;
12165;SDS011;6146;48.128;11.476;2022-08-18T14:27:56;6.70;;;6.10;;
12165;SDS011;6146;48.128;11.476;2022-08-18T14:30:23;6.43;;;5.93;;
12165;SDS011;6146;48.128;11.476;2022-08-18T14:32:49;7.00;;;6.40;;
12165;SDS011;6146;48.128;11.476;2022-08-18T14:35:17;7.30;;;6.30;;
12165;SDS011;6146;48.128;11.476;2022-08-18T14:37:43;6.83;;;6.27;;
12165;SDS011;6146;48.128;11.476;2022-08-18T14:40:09;7.23;;;6.53;;
12165;SDS011;6146;48.128;11.476;2022-08-18T14:42:36;6.20;;;5.60;;
12165;SDS011;6146;48.128;11.476;2022-08-18T14:45:02;6.90;;;6.07;;
12165;SDS011;6146;48.128;11.476;2022-08-18T14:47:30;6.40;;;5.80;;
12165;SDS011;6146;48.128;11.476;2022-08-18T14:49:56;6.13;;;5.63;;
12165;SDS011;6146;48.128;11.476;2022-08-18T14:52:22;7.60;;;6.90;;
12165;SDS011;6146;48.128;11.476;2022-08-18T14:54:48;7.53;;;6.83;;
12165;SDS011;6146;48.128;11.476;2022-08-18T14:57:14;6.67;;;6.07;;
12165;SDS011;6146;48.128;11.476;2022-08-18T14:59:40;6.50;;;5.90;;
12165;SDS011;6146;48.128;11.476;2022-08-18T15:02:07;6.77;;;6.07;;
12165;SDS011;6146;48.128;11.476;2022-08-18T15:04:35;7.10;;;6.40;;
12165;SDS011;6146;48.128;11.476;2022-08-18T15:07:01;7.53;;;6.67;;
12165;SDS011;6146;48.128;11.476;2022-08-18T15:09:27;6.50;;;5.80;;
12165;SDS011;6146;48.128;11.476;2022-08-18T15:11:56;8.43;;;6.37;;
12165;SDS011;6146;48.128;11.476;2022-08-18T15:14:24;6.97;;;6.33;;
12165;SDS011;6146;48.128;11.476;2022-08-18T15:16:51;6.10;;;5.50;;
12165;SDS011;6146;48.128;11.476;2022-08-18T15:19:17;7.13;;;5.80;;
12165;SDS011;6146;48.128;11.476;2022-08-18T15:21:43;6.60;;;6.00;;
12165;SDS011;6146;48.128;11.476;2022-08-18T15:24:27;10.30;;;5.90;;
12165;SDS011;6146;48.128;11.476;2022-08-18T15:27:11;6.40;;;5.87;;
12165;SDS011;6146;48.128;11.476;2022-08-18T15:29:37;7.73;;;6.17;;
12165;SDS011;6146;48.128;11.476;2022-08-18T15:32:02;6.50;;;5.70;;
12165;SDS011;6146;48.128;11.476;2022-08-18T15:34:28;6.50;;;5.90;;
12165;SDS011;6146;48.128;11.476;2022-08-18T15:36:54;7.17;;;5.70;;
12165;SDS011;6146;48.128;11.476;2022-08-18T15:39:21;6.33;;;5.80;;
12165;SDS011;6146;48.128;11.476;2022-08-18T15:41:47;6.40;;;5.80;;
12165;SDS011;6146;48.128;11.476;2022-08-18T15:44:14;7.03;;;6.20;;
12165;SDS011;6146;48.128;11.476;2022-08-18T15:46:41;6.80;;;6.23;;
12165;SDS011;6146;48.128;11.476;2022-08-18T15:49:08;6.57;;;5.90;;
12165;SDS011;6146;48.128;11.476;2022-08-18T15:51:34;6.23;;;5.47;;
12165;SDS011;6146;48.128;11.476;2022-08-18T15:54:02;5.97;;;5.33;;
12165;SDS011;6146;48.128;11.476;2022-08-18T15:56:29;6.73;;;6.13;;
12165;SDS011;6146;48.128;11.476;2022-08-18T15:58:55;6.40;;;5.87;;
12165;SDS011;6146;48.128;11.476;2022-08-18T16:01:22;6.47;;;5.80;;
12165;SDS011;6146;48.128;11.476;2022-08-18T16:03:49;7.30;;;6.60;;
12165;SDS011;6146;48.128;11.476;2022-08-18T16:06:17;7.50;;;6.80;;
12165;SDS011;6146;48.128;11.476;2022-08-18T16:08:45;6.83;;;6.13;;
12165;SDS011;6146;48.128;11.476;2022-08-18T16:11:12;6.67;;;5.77;;
12165;SDS011;6146;48.128;11.476;2022-08-18T16:13:39;7.27;;;6.60;;
12165;SDS011;6146;48.128;11.476;2022-08-18T16:16:09;6.50;;;5.90;;
12165;SDS011;6146;48.128;11.476;2022-08-18T16:18:38;7.03;;;6.23;;
12165;SDS011;6146;48.128;11.476;2022-08-18T16:21:05;7.37;;;6.77;;
12165;SDS011;6146;48.128;11.476;2022-08-18T16:23:39;6.97;;;6.37;;
12165;SDS011;6146;48.128;11.476;2022-08-18T16:26:06;7.07;;;6.40;;
12165;SDS011;6146;48.128;11.476;2022-08-18T16:28:32;7.53;;;6.80;;
12165;SDS011;6146;48.128;11.476;2022-08-18T16:30:58;7.43;;;6.73;;
12165;SDS011;6146;48.128;11.476;2022-08-18T16:33:24;7.27;;;6.67;;
12165;SDS011;6146;48.128;11.476;2022-08-18T16:35:50;7.90;;;7.20;;
12165;SDS011;6146;48.128;11.476;2022-08-18T16:38:16;9.93;;;9.07;;
12165;SDS011;6146;48.128;11.476;2022-08-18T16:40:43;9.30;;;8.47;;
12165;SDS011;6146;48.128;11.476;2022-08-18T16:43:09;7.90;;;7.30;;
12165;SDS011;6146;48.128;11.476;2022-08-18T16:45:36;8.07;;;7.37;;
12165;SDS011;6146;48.128;11.476;2022-08-18T16:48:03;8.90;;;7.90;;
12165;SDS011;6146;48.128;11.476;2022-08-18T16:50:32;8.83;;;7.93;;
12165;SDS011;6146;48.128;11.476;2022-08-18T16:52:57;9.20;;;8.30;;
12165;SDS011;6146;48.128;11.476;2022-08-18T16:55:23;9.70;;;8.90;;
12165;SDS011;6146;48.128;11.476;2022-08-18T16:57:49;9.00;;;8.20;;
12165;SDS011;6146;48.128;11.476;2022-08-18T17:00:33;9.20;;;8.33;;
12165;SDS011;6146;48.128;11.476;2022-08-18T17:03:18;8.50;;;7.80;;
12165;SDS011;6146;48.128;11.476;2022-08-18T17:06:06;8.27;;;7.47;;
12165;SDS011;6146;48.128;11.476;2022-08-18T17:08:34;8.27;;;7.47;;
12165;SDS011;6146;48.128;11.476;2022-08-18T17:11:01;8.73;;;7.93;;
12165;SDS011;6146;48.128;11.476;2022-08-18T17:13:28;9.10;;;8.30;;
12165;SDS011;6146;48.128;11.476;2022-08-18T17:15:54;9.70;;;8.80;;
12165;SDS011;6146;48.128;11.476;2022-08-18T17:18:20;7.60;;;7.00;;
12165;SDS011;6146;48.128;11.476;2022-08-18T17:20:46;7.60;;;6.90;;
12165;SDS011;6146;48.128;11.476;2022-08-18T17:23:11;9.13;;;6.80;;
12165;SDS011;6146;48.128;11.476;2022-08-18T17:25:37;6.97;;;6.03;;
12165;SDS011;6146;48.128;11.476;2022-08-18T17:28:04;9.63;;;6.97;;
12165;SDS011;6146;48.128;11.476;2022-08-18T17:30:31;10.93;;;9.63;;